Flight Track Log - Related Links

Times and Time Zones

All times are in EST time to prevent confusion due to time zone crossing. See the SWA692 flight status page for this flight to view local times or setup timezone preferences in your user account.

Time Position Orientation Groundspeed Altitude Reporting Facility
EST Latitude Longitude Course Direction KTS MPH feet Rate Location/Type
Tue 09:34:09 AM 42.7681 -73.8058 342° North 152 175 1,500  Level Boston Center
Tue 09:35:09 AM 42.8153 -73.8264 342° North 194 223 3,900 2,852 Climbing Boston Center
Tue 09:36:11 AM 42.8492 -73.8889 306° West 205 236 7,300 3,317 Climbing Boston Center
Tue 09:37:12 AM 42.8858 -73.9481 310° West 204 235 10,700 3,273 Climbing Boston Center
Tue 09:38:12 AM 42.8911 -74.0119 276° West 194 223 13,900 3,074 Climbing Boston Center
Tue 09:39:13 AM 42.8608 -74.0819 239° Southwest 199 229 16,900 1,869 Climbing Boston Center
Tue 09:40:14 AM 42.7769 -74.0800 179° South 321 369 17,700 1,220 Climbing Boston Center
Tue 09:41:16 AM 42.6831 -74.0289 158° South 395 455 19,400 2,182 Climbing Boston Center
Tue 09:42:15 AM 42.5778 -73.9756 160° South 403 464 22,100 2,410 Climbing Boston Center
Tue 09:43:18 AM 42.4700 -73.9217 160° South 411 473 24,300 1,951 Climbing Boston Center
Tue 09:44:18 AM 42.3542 -73.8664 161° South 424 488 26,100 1,650 Climbing Boston Center
Tue 09:45:18 AM 42.2436 -73.8908 189° South 414 476 27,600 1,736 Climbing Boston Center
Tue 09:46:19 AM 42.1167 -73.9461 198° South 404 465 29,600 2,098 Climbing Boston Center
Tue 09:47:21 AM 42.0092 -73.9933 198° South 401 461 31,900 1,869 Climbing Boston Center
Tue 09:48:21 AM 41.9083 -74.0367 198° South 394 453 33,400 1,488 Climbing Boston Center
Tue 09:49:22 AM 41.8044 -74.0817 198° South 393 452 34,900 1,388 Climbing Boston Center
Tue 09:50:22 AM 41.6992 -74.1267 198° South 392 451 36,200 1,268 Climbing Boston Center
Tue 09:51:25 AM 41.5964 -74.1703 198° South 391 450 37,500 864 Climbing Boston Center
Tue 09:52:27 AM 41.4933 -74.2133 197° South 390 449 38,000 246 Climbing Boston Center
Tue 09:53:27 AM 41.3900 -74.2578 198° South 389 448 38,000  Level Boston Center
Tue 09:54:07 AM 41.3281 -74.2853 198° South 395 455 38,000  Level New York Center
Tue 09:55:07 AM 41.2142 -74.3289 196° South 395 455 38,000  Level New York Center
Tue 09:56:07 AM 41.1108 -74.3703 197° South 390 449 38,000  Level New York Center
Tue 09:57:07 AM 41.0094 -74.4144 198° South 390 449 38,000  Level New York Center
Tue 09:58:07 AM 40.9083 -74.4583 198° South 390 449 38,000  Level New York Center
Tue 09:59:07 AM 40.8069 -74.5022 198° South 390 449 38,000  Level New York Center
Tue 10:00:07 AM 40.7014 -74.5431 196° South 390 449 38,000  Level New York Center
Tue 10:01:07 AM 40.6000 -74.5839 197° South 390 449 38,000  Level New York Center
Tue 10:02:07 AM 40.4986 -74.6275 198° South 390 449 38,000  Level New York Center
Tue 10:04:18 AM 40.2789 -74.7158 197° South 388 447 38,000  Level Washington Center
Tue 10:05:18 AM 40.1772 -74.7581 198° South 388 447 38,000  Level Washington Center
Tue 10:06:19 AM 40.0756 -74.8025 198° South 388 447 38,000  Level Washington Center
Tue 10:07:17 AM 39.9611 -74.8497 198° South 388 447 38,000  Level Washington Center
Tue 10:08:18 AM 39.8594 -74.8886 196° South 388 447 38,000  Level Washington Center
Tue 10:09:19 AM 39.7556 -74.9331 198° South 388 447 38,000  Level Washington Center
Tue 10:10:17 AM 39.6494 -74.9717 196° South 393 452 38,000  Level Washington Center
Tue 10:11:18 AM 39.5475 -75.0156 198° South 399 459 38,000  Level Washington Center
Tue 10:12:18 AM 39.4414 -75.0567 197° South 399 459 38,000  Level Washington Center
Tue 10:13:18 AM 39.3394 -75.0978 197° South 399 459 38,000  Level Washington Center
Tue 10:14:19 AM 39.2356 -75.1414 198° South 399 459 38,000  Level Washington Center
Tue 10:15:17 AM 39.1336 -75.1850 198° South 399 459 38,000  Level Washington Center
Tue 10:16:17 AM 39.0294 -75.2228 196° South 399 459 38,000  Level Washington Center
Tue 10:17:19 AM 38.9275 -75.2714 200° South 399 459 38,000  Level Washington Center
Tue 10:18:19 AM 38.8253 -75.3197 200° South 399 459 38,000  Level Washington Center
Tue 10:19:17 AM 38.7233 -75.3603 197° South 394 453 38,000  Level Washington Center
Tue 10:20:17 AM 38.6192 -75.4003 197° South 394 453 38,000  Level Washington Center
Tue 10:21:18 AM 38.5192 -75.4378 196° South 394 453 38,000  Level Washington Center
Tue 10:22:17 AM 38.4150 -75.4831 199° South 389 448 38,000  Level Washington Center
Tue 10:23:17 AM 38.3150 -75.5283 200° South 389 448 38,000  Level Washington Center
Tue 10:24:18 AM 38.2086 -75.5733 198° South 389 448 38,000  Level Washington Center
Tue 10:25:19 AM 38.1147 -75.6314 206° Southwest 384 442 38,000  Level Washington Center
Tue 10:26:17 AM 38.0250 -75.6972 210° Southwest 377 434 38,000  Level Washington Center
Tue 10:27:18 AM 37.9311 -75.7550 206° Southwest 377 434 38,000  Level Washington Center
Tue 10:28:19 AM 37.8350 -75.8153 206° Southwest 382 440 38,000  Level Washington Center
Tue 10:29:20 AM 37.7411 -75.8728 206° Southwest 382 440 38,000  Level Washington Center
Tue 10:30:18 AM 37.6472 -75.9300 206° Southwest 382 440 38,000  Level Washington Center
Tue 10:31:18 AM 37.5489 -75.9925 207° Southwest 389 448 38,000  Level Washington Center
Tue 10:32:19 AM 37.4547 -76.0497 206° Southwest 389 448 38,000  Level Washington Center
Tue 10:33:17 AM 37.3567 -76.1092 206° Southwest 389 448 38,000  Level Washington Center
Tue 10:34:18 AM 37.2603 -76.1686 206° Southwest 389 448 38,000  Level Washington Center
Tue 10:35:19 AM 37.1994 -76.2644 231° Southwest 358 412 38,000  Level Washington Center
Tue 10:36:17 AM 37.1569 -76.3711 243° Southwest 348 400 38,000  Level Washington Center
Tue 10:37:17 AM 37.1167 -76.4828 246° West 353 406 38,000  Level Washington Center
Tue 10:38:19 AM 37.0739 -76.5942 244° Southwest 353 406 38,000  Level Washington Center
Tue 10:39:17 AM 37.0231 -76.7000 239° Southwest 353 406 38,000  Level Washington Center
Tue 10:40:17 AM 36.9203 -76.7428 198° South 354 407 38,000  Level Washington Center
Tue 10:41:18 AM 36.8156 -76.7853 198° South 366 421 38,000  Level Washington Center
Tue 10:42:19 AM 36.7089 -76.8253 197° South 388 447 38,000  Level Washington Center
Tue 10:43:17 AM 36.6042 -76.8650 197° South 398 458 38,000  Level Washington Center
Tue 10:44:17 AM 36.4972 -76.9044 197° South 403 464 38,000  Level Washington Center
Tue 10:45:18 AM 36.3906 -76.9467 198° South 403 464 38,000  Level Washington Center
Tue 10:46:19 AM 36.2814 -76.9858 196° South 403 464 38,000  Level Washington Center
Tue 10:47:19 AM 36.1747 -77.0253 197° South 403 464 38,000  Level Washington Center
Tue 10:48:16 AM 36.0678 -77.0619 195° South 403 464 38,000  Level Washington Center
Tue 10:49:18 AM 35.9608 -77.1008 196° South 403 464 38,000  Level Washington Center
Tue 10:50:18 AM 35.8581 -77.1375 196° South 398 458 38,000  Level Washington Center
Tue 10:51:19 AM 35.7492 -77.1761 196° South 398 458 38,000  Level Washington Center
Tue 10:52:17 AM 35.6400 -77.2200 198° South 403 464 38,000  Level Washington Center
Tue 10:53:17 AM 35.5289 -77.2561 195° South 403 464 38,000  Level Washington Center
Tue 10:54:18 AM 35.4367 -77.2925 198° South 403 464 38,000  Level Washington Center
Tue 10:55:19 AM 35.3256 -77.3333 197° South 403 464 38,000  Level Washington Center
Tue 10:56:18 AM 35.2144 -77.3717 196° South 403 464 38,000  Level Washington Center
Tue 10:57:18 AM 35.1075 -77.4072 195° South 403 464 38,000  Level Washington Center
Tue 10:58:18 AM 34.9961 -77.4506 198° South 408 470 38,000  Level Washington Center
Tue 10:59:19 AM 34.8872 -77.4861 195° South 408 470 38,000  Level Washington Center
Tue 11:00:17 AM 34.7653 -77.5336 198° South 408 470 38,000  Level Washington Center
Tue 11:01:17 AM 34.6561 -77.5742 197° South 408 470 38,000  Level Washington Center
Tue 11:02:18 AM 34.5469 -77.6117 196° South 413 475 38,000  Level Washington Center
Tue 11:03:19 AM 34.4358 -77.6494 196° South 413 475 38,000  Level Washington Center
Tue 11:04:17 AM 34.3244 -77.6892 196° South 418 481 38,000  Level Washington Center
Tue 11:05:59 AM 34.1344 -77.7522 195° South 418 481 38,000  Level Jacksonville Center
Tue 11:06:59 AM 34.0233 -77.7914 196° South 418 481 38,000  Level Jacksonville Center
Tue 11:07:59 AM 33.9122 -77.8303 196° South 423 487 38,000  Level Jacksonville Center
Tue 11:08:59 AM 33.8011 -77.8692 196° South 425 489 38,000  Level Jacksonville Center
Tue 11:09:59 AM 33.6878 -77.9056 195° South 425 489 38,000  Level Jacksonville Center
Tue 11:10:59 AM 33.5747 -77.9469 197° South 425 489 38,000  Level Jacksonville Center
Tue 11:11:59 AM 33.4656 -77.9856 196° South 420 483 38,000  Level Jacksonville Center
Tue 11:12:59 AM 33.3542 -78.0214 195° South 415 478 38,000  Level Jacksonville Center
Tue 11:13:59 AM 33.2431 -78.0622 197° South 415 478 38,000  Level Jacksonville Center
Tue 11:14:59 AM 33.1300 -78.1031 197° South 415 478 38,000  Level Jacksonville Center
Tue 11:15:59 AM 33.0186 -78.1389 195° South 415 478 38,000  Level Jacksonville Center
Tue 11:17:00 AM 32.9072 -78.1744 195° South 415 478 38,000  Level Jacksonville Center
Tue 11:17:59 AM 32.7939 -78.2125 196° South 415 478 38,000  Level Jacksonville Center
Tue 11:18:59 AM 32.6847 -78.2550 198° South 415 478 38,000  Level Jacksonville Center
Tue 11:19:59 AM 32.5711 -78.2881 194° South 415 478 38,000  Level Jacksonville Center
Tue 11:20:59 AM 32.4578 -78.3258 196° South 415 478 38,000  Level Jacksonville Center
Tue 11:21:59 AM 32.3444 -78.3633 196° South 415 478 38,000  Level Jacksonville Center
Tue 11:22:59 AM 32.2331 -78.4033 197° South 415 478 38,000  Level Jacksonville Center
Tue 11:23:59 AM 32.1217 -78.4406 196° South 414 476 38,000  Level Jacksonville Center
Tue 11:24:59 AM 32.0081 -78.4781 196° South 414 476 38,000  Level Jacksonville Center
Tue 11:25:59 AM 31.8967 -78.5150 196° South 414 476 38,000  Level Jacksonville Center
Tue 11:27:00 AM 31.7833 -78.5547 197° South 414 476 38,000  Level Jacksonville Center
Tue 11:27:59 AM 31.6719 -78.5917 196° South 414 476 38,000  Level Jacksonville Center
Tue 11:28:59 AM 31.5583 -78.6286 195° South 414 476 38,000  Level Jacksonville Center
Tue 11:29:59 AM 31.4467 -78.6628 195° South 414 476 38,000  Level Jacksonville Center
Tue 11:30:59 AM 31.3311 -78.7047 197° South 424 488 38,000  Level Jacksonville Center
Tue 11:31:59 AM 31.2156 -78.7389 194° South 429 494 38,000  Level Jacksonville Center
Tue 11:32:59 AM 31.1017 -78.7756 195° South 434 499 38,000  Level Jacksonville Center
Tue 11:33:59 AM 30.9819 -78.8122 195° South 434 499 38,000  Level Jacksonville Center
Tue 11:34:59 AM 30.8725 -78.8508 197° South 429 494 38,000  Level Jacksonville Center
Tue 11:35:59 AM 30.7569 -78.8894 196° South 429 494 38,000  Level Jacksonville Center
Tue 11:36:59 AM 30.6411 -78.9258 195° South 436 502 38,000  Level Jacksonville Center
Tue 11:38:20 AM 30.4961 -78.9711 195° South 400 460 38,000  Level Miami Center
Tue 11:39:20 AM 30.3789 -79.0072 195° South 416 479 38,000  Level Miami Center
Tue 11:40:20 AM 30.2658 -79.0364 193° South 416 479 38,000  Level Miami Center
Tue 11:41:20 AM 30.1506 -79.0675 193° South 426 490 38,000  Level Miami Center
Tue 11:42:20 AM 30.0333 -79.0986 193° South 436 502 38,000  Level Miami Center
Tue 11:43:20 AM 29.9161 -79.1322 194° South 429 494 38,000  Level Miami Center
Tue 11:44:20 AM 29.8031 -79.1656 194° South 429 494 38,000  Level Miami Center
Tue 11:45:20 AM 29.6836 -79.1942 192° South 429 494 38,000  Level Miami Center
Tue 11:46:20 AM 29.5667 -79.2178 190° South 432 497 38,000  Level Miami Center
Tue 11:47:20 AM 29.4533 -79.2511 194° South 432 497 38,000  Level Miami Center
Tue 11:48:20 AM 29.3342 -79.2747 190° South 426 490 38,000  Level Miami Center
Tue 11:49:20 AM 29.2269 -79.3103 196° South 426 490 38,000 -200 Level Miami Center
Tue 11:50:20 AM 29.1056 -79.3361 191° South 431 496 37,600 -650 Descending Miami Center
Tue 11:51:20 AM 28.9883 -79.3644 192° South 431 496 36,700 -950 Descending Miami Center
Tue 11:52:20 AM 28.8708 -79.3925 192° South 431 496 35,700 -1,000 Descending Miami Center
Tue 11:53:20 AM 28.7536 -79.4231 193° South 431 496 34,700 -850 Descending Miami Center
Tue 11:54:20 AM 28.6342 -79.4533 193° South 431 496 34,000 -350 Descending Miami Center
Tue 11:55:20 AM 28.5147 -79.4814 192° South 431 496 34,000  Level Miami Center
Tue 11:56:20 AM 28.3950 -79.5139 193° South 431 496 34,000  Level Miami Center
Tue 11:57:20 AM 28.2756 -79.5417 192° South 431 496 34,000  Level Miami Center
Tue 11:58:20 AM 28.1561 -79.5719 193° South 431 496 34,000  Level Miami Center
Tue 11:59:20 AM 28.0344 -79.5994 191° South 437 503 34,000  Level Miami Center
Tue 12:00:20 PM 27.9128 -79.6294 192° South 437 503 34,000  Level Miami Center
Tue 12:01:20 PM 27.8078 -79.6553 192° South 437 503 34,000 -450 Level Miami Center
Tue 12:02:20 PM 27.6778 -79.6872 192° South 437 503 33,100 -1,350 Descending Miami Center
Tue 12:03:20 PM 27.5542 -79.7053 187° South 436 502 31,300 -1,650 Descending Miami Center
Tue 12:04:20 PM 27.4289 -79.7044 180° South 451 519 29,800 -2,300 Descending Miami Center
Tue 12:05:20 PM 27.3164 -79.6992 178° South 456 525 26,700 -3,100 Descending Miami Center
Tue 12:06:20 PM 27.1786 -79.6936 178° South 456 525 23,600 -2,800 Descending Miami Center
Tue 12:07:20 PM 27.0617 -79.6931 180° South 437 503 21,100 -2,450 Descending Miami Center
Tue 12:08:20 PM 26.9511 -79.6881 178° South 415 478 18,700 -2,400 Descending Miami Center
Tue 12:09:20 PM 26.8508 -79.6881 180° South 402 463 16,300 -2,557 Descending Miami Center
Tue 12:10:15 PM 26.7422 -79.6922 182° South 377 434 13,800 -2,500 Descending Miami Center
Tue 12:10:20 PM 26.7442 -79.6922 360° North 397 457 13,800 -2,571 Level Miami Center
Tue 12:11:04 PM 26.6600 -79.7297 202° Southwest 369 425 11,700 -2,700 Descending Miami Center
Tue 12:11:20 PM 26.6389 -79.7364 196° South 373 429 11,100 -2,361 Descending Miami Center
Tue 12:12:05 PM 26.5672 -79.7742 205° Southwest 360 414 9,300 -2,200 Descending Miami Center
Tue 12:12:20 PM 26.5567 -79.7761 189° South 367 422 8,900 -1,091 Descending Miami Center
Tue 12:13:00 PM 26.4872 -79.8117 205° Southwest 322 371 8,300 -800 Descending Miami Center
Tue 12:13:20 PM 26.4661 -79.8203 200° South 338 389 8,100 -295 Descending Miami Center
Tue 12:14:01 PM 26.4153 -79.8469 205° Southwest 275 316 8,000 -100 Descending Miami Center
Tue 12:14:20 PM 26.4006 -79.8511 194° South 301 346 8,000 -364 Level Miami Center
Tue 12:15:07 PM 26.3456 -79.8939 215° Southwest 267 307 7,600 -800 Descending Miami Center
Tue 12:15:20 PM 26.3347 -79.9050 223° Southwest 282 325 7,200 -1,636 Descending Miami Center
Tue 12:16:02 PM 26.2922 -79.9481 222° Southwest 280 322 6,100 -1,200 Descending Miami Center
Tue 12:16:20 PM 26.2814 -79.9569 216° Southwest 282 325 6,000 -98 Descending Miami Center
Tue 12:17:03 PM 26.2325 -80.0044 221° Southwest 279 321 6,000  Level Miami Center
Tue 12:17:20 PM 26.2239 -80.0111 215° Southwest 282 325 6,000  Level Miami Center
Tue 12:18:04 PM 26.1769 -80.0631 225° Southwest 280 322 6,000  Level Miami Center
Tue 12:18:20 PM 26.1744 -80.0744 256° West 282 325 6,000  Level Miami Center
Tue 12:18:59 PM 26.1544 -80.1342 250° West 246 283 6,000  Level Miami Center
Tue 12:19:20 PM 26.1519 -80.1503 260° West 266 306 6,000 -806 Level Miami Center
Tue 12:20:06 PM 26.1483 -80.2197 267° West 249 287 5,100 -1,069 Descending Miami Center
Tue 12:21:01 PM 26.1467 -80.2867 268° West 242 278 4,200 -1,180 Descending Miami Center
Tue 12:22:08 PM 26.1122 -80.3367 233° Southwest 197 227 2,700 -1,082 Descending Miami Center
Tue 12:23:03 PM 26.0772 -80.3056 141° Southeast 180 207 2,000 -621 Descending Miami Center
Tue 12:24:04 PM 26.0744 -80.2522 93° East 172 198 1,500 -609 Descending Miami Center
Tue 12:25:11 PM 26.0756 -80.2061 88° East 133 153 700 -716 Descending Miami Center
Tue 12:27:00 PM 26.0667 -80.1500 103° East  Level FlightAware Approximate
Tue 12:34:00 PM 26.0726 -80.1527 103° East  Level Estimated

Login

Don't have an account? Register now (free) for customized features, flight alerts, and more!